createdAt,value
2018-06-27T00:01:58.305Z,8.13
2018-06-27T00:04:27.268Z,7.83
2018-06-27T00:06:56.121Z,7.33
2018-06-27T00:09:24.609Z,8.00
2018-06-27T00:11:53.106Z,7.80
2018-06-27T00:14:21.722Z,8.30
2018-06-27T00:16:49.972Z,8.07
2018-06-27T00:19:18.397Z,8.40
2018-06-27T00:21:46.726Z,8.90
2018-06-27T00:24:15.131Z,9.60
2018-06-27T00:26:44.825Z,8.97
2018-06-27T00:29:14.187Z,8.43
2018-06-27T00:31:42.593Z,9.13
2018-06-27T00:34:11.236Z,8.27
2018-06-27T00:36:39.875Z,8.90
2018-06-27T00:39:11.397Z,10.30
2018-06-27T00:41:39.039Z,8.77
2018-06-27T00:44:08.535Z,8.37
2018-06-27T00:46:37.889Z,9.97
2018-06-27T00:49:09.363Z,13.93
2018-06-27T00:51:37.830Z,10.40
2018-06-27T00:54:10.007Z,9.60
2018-06-27T00:56:39.909Z,9.40
2018-06-27T00:59:09.777Z,9.70
2018-06-27T01:01:38.704Z,8.27
2018-06-27T01:04:07.232Z,9.93
2018-06-27T01:06:37.154Z,8.40
2018-06-27T01:09:19.966Z,10.88
2018-06-27T01:11:49.157Z,10.03
2018-06-27T01:14:17.537Z,11.73
2018-06-27T01:16:46.144Z,10.37
2018-06-27T01:19:16.458Z,12.00
2018-06-27T01:21:44.902Z,9.70
2018-06-27T01:24:13.253Z,11.30
2018-06-27T01:26:41.972Z,9.87
2018-06-27T01:29:10.321Z,10.63
2018-06-27T01:31:39.085Z,11.03
2018-06-27T01:34:07.627Z,11.20
2018-06-27T01:36:35.989Z,9.60
2018-06-27T01:39:06.726Z,10.23
2018-06-27T01:41:35.150Z,9.57
2018-06-27T01:44:03.866Z,9.10
2018-06-27T01:46:32.533Z,9.97
2018-06-27T01:49:02.092Z,9.50
2018-06-27T01:51:31.768Z,9.20
2018-06-27T01:54:00.080Z,10.83
2018-06-27T01:56:28.449Z,9.83
2018-06-27T01:58:56.817Z,10.53
2018-06-27T02:01:25.209Z,10.27
2018-06-27T02:03:54.201Z,11.10
2018-06-27T02:06:22.431Z,10.97
2018-06-27T02:08:50.823Z,9.90
2018-06-27T02:11:19.255Z,10.90
2018-06-27T02:13:49.011Z,11.00
2018-06-27T02:16:18.602Z,11.57
2018-06-27T02:18:52.395Z,10.13
2018-06-27T02:21:20.788Z,10.33
2018-06-27T02:23:51.239Z,10.83
2018-06-27T02:26:19.770Z,11.30
2018-06-27T02:28:54.489Z,10.00
2018-06-27T02:31:22.919Z,10.10
2018-06-27T02:33:52.414Z,11.53
2018-06-27T02:36:20.800Z,10.80
2018-06-27T02:38:49.566Z,11.27
2018-06-27T02:41:18.080Z,11.50
2018-06-27T02:43:47.357Z,11.30
2018-06-27T02:46:15.873Z,10.70
2018-06-27T02:48:44.482Z,10.57
2018-06-27T02:51:12.831Z,10.10
2018-06-27T02:53:40.910Z,10.53
2018-06-27T02:56:10.925Z,10.10
2018-06-27T02:58:39.366Z,11.47
2018-06-27T03:01:09.113Z,10.23
2018-06-27T03:03:37.545Z,13.20
2018-06-27T03:06:07.708Z,11.03
2018-06-27T03:08:36.069Z,11.17
2018-06-27T03:11:04.529Z,10.97
2018-06-27T03:13:32.829Z,10.13
2018-06-27T03:16:02.297Z,11.17
2018-06-27T03:18:31.210Z,9.93
2018-06-27T03:20:59.746Z,11.30
2018-06-27T03:23:28.158Z,10.40
2018-06-27T03:25:56.583Z,10.63
2018-06-27T03:28:25.025Z,11.53
2018-06-27T03:30:54.845Z,10.80
2018-06-27T03:33:24.229Z,10.70
2018-06-27T03:35:54.075Z,13.20
2018-06-27T03:38:25.726Z,10.90
2018-06-27T03:40:54.167Z,10.10
2018-06-27T03:43:32.922Z,10.47
2018-06-27T03:46:02.880Z,11.17
2018-06-27T03:48:31.180Z,10.10
2018-06-27T03:51:00.357Z,13.43
2018-06-27T03:53:38.692Z,11.13
2018-06-27T03:56:09.639Z,10.20
2018-06-27T03:58:40.029Z,11.30
2018-06-27T04:01:14.541Z,11.23
2018-06-27T04:04:03.700Z,11.77
2018-06-27T04:06:33.305Z,14.10
2018-06-27T04:09:02.569Z,12.33
2018-06-27T04:11:30.894Z,9.93
2018-06-27T04:13:59.311Z,10.07
2018-06-27T04:16:28.186Z,12.90
2018-06-27T04:18:56.768Z,11.37
2018-06-27T04:21:25.218Z,10.97
2018-06-27T04:23:58.050Z,11.90
2018-06-27T04:40:55.928Z,11.40
2018-06-27T04:47:21.128Z,11.77
2018-06-27T04:49:51.009Z,10.37
2018-06-27T04:52:36.865Z,10.37
2018-06-27T04:55:12.400Z,10.80
2018-06-27T04:57:55.508Z,10.87
2018-06-27T05:00:43.084Z,11.17
2018-06-27T05:03:40.166Z,11.00
2018-06-27T05:06:09.922Z,11.13
2018-06-27T05:08:42.059Z,12.77
2018-06-27T05:11:13.550Z,11.07
2018-06-27T05:13:42.307Z,11.10
2018-06-27T05:16:10.720Z,10.97
2018-06-27T05:18:40.421Z,11.43
2018-06-27T05:21:10.137Z,10.73
2018-06-27T05:23:39.630Z,10.53
2018-06-27T05:26:10.820Z,11.17
2018-06-27T05:28:39.188Z,11.60
2018-06-27T05:31:07.555Z,13.95
2018-06-27T05:33:35.989Z,14.47
2018-06-27T05:36:04.459Z,12.70
2018-06-27T05:38:32.802Z,11.13
2018-06-27T05:41:01.233Z,13.15
2018-06-27T05:43:29.619Z,11.33
2018-06-27T05:45:58.051Z,10.83
2018-06-27T05:48:33.881Z,11.27
2018-06-27T05:51:02.600Z,11.27
2018-06-27T05:53:31.015Z,11.87
2018-06-27T05:55:59.512Z,14.10
2018-06-27T05:58:27.884Z,11.37
2018-06-27T06:00:56.186Z,11.57
2018-06-27T06:03:24.585Z,12.33
2018-06-27T06:05:52.985Z,11.57
2018-06-27T06:08:22.440Z,11.87
2018-06-27T06:10:50.846Z,11.73
2018-06-27T06:13:19.165Z,12.47
2018-06-27T06:15:47.536Z,13.00
2018-06-27T06:18:16.009Z,12.43
2018-06-27T06:20:44.347Z,11.83
2018-06-27T06:23:12.793Z,12.93
2018-06-27T06:25:42.151Z,12.10
2018-06-27T06:28:10.544Z,14.45
2018-06-27T06:30:38.889Z,13.70
2018-06-27T06:33:07.347Z,11.80
2018-06-27T06:35:35.745Z,12.50
2018-06-27T06:38:04.143Z,12.63
2018-06-27T06:40:32.535Z,12.63
2018-06-27T06:43:00.896Z,12.00
2018-06-27T06:45:29.278Z,13.03
2018-06-27T06:47:57.701Z,12.33
2018-06-27T06:50:26.024Z,11.33
2018-06-27T06:52:54.420Z,11.73
2018-06-27T06:55:22.890Z,12.57
2018-06-27T06:57:53.811Z,12.23
2018-06-27T07:00:22.477Z,12.23
2018-06-27T07:02:50.891Z,11.87
2018-06-27T07:05:19.255Z,12.23
2018-06-27T07:07:47.610Z,12.20
2018-06-27T07:10:16.004Z,11.93
2018-06-27T07:12:44.735Z,12.43
2018-06-27T07:15:16.498Z,11.40
2018-06-27T07:17:54.032Z,14.20
2018-06-27T07:20:22.405Z,13.62
2018-06-27T07:22:50.836Z,11.70
2018-06-27T07:25:19.258Z,12.47
2018-06-27T07:27:47.974Z,13.77
2018-06-27T07:30:16.333Z,12.63
2018-06-27T07:32:44.485Z,12.27
2018-06-27T07:35:14.083Z,13.20
2018-06-27T07:37:43.665Z,12.43
2018-06-27T07:40:12.089Z,13.23
2018-06-27T07:42:40.540Z,13.17
2018-06-27T07:45:09.033Z,13.73
2018-06-27T07:47:45.586Z,13.40
2018-06-27T07:50:15.297Z,12.83
2018-06-27T07:52:43.403Z,13.50
2018-06-27T07:55:14.897Z,14.73
2018-06-27T07:57:45.469Z,14.20
2018-06-27T08:00:13.865Z,14.10
2018-06-27T08:02:42.254Z,14.47
2018-06-27T08:05:10.616Z,13.57
2018-06-27T08:07:38.990Z,13.17
2018-06-27T08:10:07.565Z,16.77
2018-06-27T08:12:35.948Z,13.97
2018-06-27T08:15:04.633Z,15.57
2018-06-27T08:17:33.037Z,13.50
2018-06-27T08:20:01.376Z,17.15
2018-06-27T08:22:30.062Z,15.37
2018-06-27T08:24:59.939Z,13.50
2018-06-27T08:27:28.704Z,14.95
2018-06-27T08:29:58.316Z,15.17
2018-06-27T08:32:26.804Z,14.70
2018-06-27T08:35:00.929Z,15.83
2018-06-27T08:37:29.342Z,16.70
2018-06-27T08:39:58.682Z,16.77
2018-06-27T08:42:27.107Z,14.75
2018-06-27T08:44:55.580Z,16.03
2018-06-27T08:47:23.983Z,16.15
2018-06-27T08:49:52.428Z,16.17
2018-06-27T08:52:20.781Z,16.70
2018-06-27T08:54:49.117Z,16.33
2018-06-27T08:57:18.781Z,16.05
2018-06-27T08:59:47.782Z,17.95
2018-06-27T09:02:16.178Z,16.83
2018-06-27T09:04:45.841Z,17.87
2018-06-27T09:07:14.222Z,17.82
2018-06-27T09:09:43.754Z,17.17
2018-06-27T09:12:12.079Z,16.23
2018-06-27T09:14:40.463Z,17.80
2018-06-27T09:17:10.021Z,18.73
2018-06-27T09:19:41.181Z,17.87
2018-06-27T09:22:11.018Z,17.33
2018-06-27T09:24:39.405Z,16.50
2018-06-27T09:27:09.190Z,16.95
2018-06-27T09:29:37.596Z,17.87
2018-06-27T09:32:05.992Z,17.67
2018-06-27T09:34:34.328Z,17.77
2018-06-27T09:37:02.734Z,18.40
2018-06-27T09:39:31.082Z,19.37
2018-06-27T09:42:02.169Z,18.67
2018-06-27T09:44:30.569Z,18.30
2018-06-27T09:46:59.281Z,18.77
2018-06-27T09:49:27.633Z,22.85
2018-06-27T09:51:56.090Z,19.60
2018-06-27T09:54:24.528Z,19.70
2018-06-27T09:56:52.982Z,19.32
2018-06-27T09:59:22.559Z,21.55
2018-06-27T10:01:50.935Z,23.17
2018-06-27T10:04:19.303Z,19.50
2018-06-27T10:06:47.814Z,18.90
2018-06-27T10:09:16.178Z,19.20
2018-06-27T10:11:44.553Z,18.67
2018-06-27T10:14:12.984Z,20.23
2018-06-27T10:16:41.304Z,18.02
2018-06-27T10:19:15.704Z,20.35
2018-06-27T10:21:47.632Z,18.35
2018-06-27T10:24:16.233Z,17.90
2018-06-27T10:26:44.575Z,17.48
2018-06-27T10:29:14.305Z,20.75
2018-06-27T10:31:42.673Z,19.17
2018-06-27T10:34:23.713Z,19.90
2018-06-27T10:36:52.109Z,19.90
2018-06-27T10:39:20.560Z,20.32
2018-06-27T10:41:49.013Z,23.60
2018-06-27T10:44:18.424Z,19.60
2018-06-27T10:46:47.844Z,20.40
2018-06-27T10:49:16.244Z,20.85
2018-06-27T10:51:44.573Z,19.62
2018-06-27T10:54:12.921Z,18.17
2018-06-27T10:56:41.327Z,17.73
2018-06-27T10:59:09.691Z,19.73
2018-06-27T11:01:38.094Z,19.87
2018-06-27T11:04:06.619Z,23.03
2018-06-27T11:06:35.021Z,21.50
2018-06-27T11:09:03.556Z,22.10
2018-06-27T11:11:31.916Z,20.08
2018-06-27T11:14:00.382Z,20.88
2018-06-27T11:16:30.676Z,19.20
2018-06-27T11:18:59.089Z,19.10
2018-06-27T11:21:27.504Z,18.82
2018-06-27T11:23:55.909Z,17.82
2018-06-27T11:26:24.469Z,19.05
2018-06-27T11:28:52.833Z,18.35
2018-06-27T11:31:21.291Z,19.40
2018-06-27T11:33:50.973Z,21.95
2018-06-27T11:36:19.350Z,20.25
2018-06-27T11:38:47.771Z,18.80
2018-06-27T11:41:17.231Z,17.42
2018-06-27T11:43:45.605Z,18.55
2018-06-27T11:46:14.004Z,19.67
2018-06-27T11:48:42.419Z,18.57
2018-06-27T11:51:20.934Z,16.75
2018-06-27T11:53:49.334Z,18.82
2018-06-27T11:56:17.746Z,18.25
2018-06-27T11:58:51.493Z,17.42
2018-06-27T12:01:22.983Z,14.93
2018-06-27T12:03:51.373Z,16.55
2018-06-27T12:06:19.849Z,16.60
2018-06-27T12:08:52.015Z,14.00
2018-06-27T12:11:20.344Z,14.13
2018-06-27T12:13:49.008Z,12.13
2018-06-27T12:16:17.569Z,12.68
2018-06-27T12:18:46.230Z,10.93
2018-06-27T12:21:14.610Z,10.70
2018-06-27T12:23:43.023Z,10.03
2018-06-27T12:26:11.573Z,11.38
2018-06-27T12:28:39.889Z,11.33
2018-06-27T12:31:08.426Z,11.48
2018-06-27T12:33:36.847Z,10.03
2018-06-27T12:36:06.786Z,9.80
2018-06-27T12:38:35.244Z,11.93
2018-06-27T12:41:04.648Z,8.48
2018-06-27T12:43:33.059Z,9.13
2018-06-27T12:46:02.300Z,8.00
2018-06-27T12:48:30.706Z,9.60
2018-06-27T12:50:59.420Z,8.78
2018-06-27T12:53:28.856Z,8.25
2018-06-27T12:55:57.239Z,9.55
2018-06-27T12:58:25.618Z,9.08
2018-06-27T13:00:54.019Z,7.37
2018-06-27T13:03:28.963Z,7.67
2018-06-27T13:06:02.493Z,7.00
2018-06-27T13:08:30.859Z,7.80
2018-06-27T13:10:59.217Z,6.67
2018-06-27T13:13:27.600Z,7.17
2018-06-27T13:15:56.006Z,6.95
2018-06-27T13:18:24.370Z,7.20
2018-06-27T13:20:55.870Z,7.30
2018-06-27T13:23:24.225Z,8.20
2018-06-27T13:25:52.577Z,7.60
2018-06-27T13:28:20.976Z,10.08
2018-06-27T13:30:51.785Z,8.63
2018-06-27T13:33:20.108Z,9.43
2018-06-27T13:35:50.040Z,7.35
2018-06-27T13:38:18.364Z,7.80
2018-06-27T13:40:48.292Z,8.05
2018-06-27T13:43:16.842Z,8.95
2018-06-27T13:45:45.193Z,9.43
2018-06-27T13:48:13.541Z,9.70
2018-06-27T13:50:41.921Z,10.10
2018-06-27T13:53:10.395Z,10.40
2018-06-27T13:55:38.781Z,9.95
2018-06-27T13:58:07.596Z,10.43
2018-06-27T14:00:37.910Z,9.40
2018-06-27T14:03:06.478Z,9.10
2018-06-27T14:05:34.897Z,8.50
2018-06-27T14:08:03.310Z,8.30
2018-06-27T14:10:31.747Z,8.53
2018-06-27T14:13:00.109Z,7.67
2018-06-27T14:15:28.489Z,8.05
2018-06-27T14:17:57.475Z,7.72
2018-06-27T14:20:25.881Z,8.00
2018-06-27T14:22:54.292Z,7.25
2018-06-27T14:25:22.694Z,7.40
2018-06-27T14:27:51.113Z,7.97
2018-06-27T14:30:19.461Z,8.40
2018-06-27T14:32:47.845Z,7.70
2018-06-27T14:35:16.257Z,8.68
2018-06-27T14:37:44.649Z,8.80
2018-06-27T14:40:13.052Z,9.90
2018-06-27T14:42:41.528Z,8.93
2018-06-27T14:45:12.037Z,8.90
2018-06-27T14:47:40.541Z,9.05
2018-06-27T14:50:10.958Z,9.65
2018-06-27T14:52:39.517Z,9.25
2018-06-27T14:55:10.978Z,9.98
2018-06-27T14:57:40.968Z,9.65
2018-06-27T15:00:10.132Z,9.90
2018-06-27T15:02:38.848Z,10.00
2018-06-27T15:05:08.634Z,10.40
2018-06-27T15:07:37.078Z,11.70
2018-06-27T15:10:08.218Z,11.10
2018-06-27T15:12:36.693Z,11.00
2018-06-27T15:15:05.315Z,11.85
2018-06-27T15:17:41.032Z,12.03
2018-06-27T15:20:10.125Z,12.18
2018-06-27T15:22:38.208Z,12.43
2018-06-27T15:25:07.543Z,12.88
2018-06-27T15:27:43.509Z,12.50
2018-06-27T15:30:11.992Z,12.60
2018-06-27T15:32:40.359Z,12.82
2018-06-27T15:35:09.557Z,12.20
2018-06-27T15:37:39.552Z,12.23
2018-06-27T15:40:07.948Z,11.75
2018-06-27T15:42:36.357Z,10.55
2018-06-27T15:45:06.433Z,10.10
2018-06-27T15:47:34.833Z,9.83
2018-06-27T15:50:04.164Z,8.65
2018-06-27T15:52:32.557Z,8.30
2018-06-27T15:55:00.937Z,8.13
2018-06-27T15:57:30.552Z,8.23
2018-06-27T15:59:58.664Z,8.83
2018-06-27T16:02:27.006Z,8.50
2018-06-27T16:04:55.123Z,7.78
2018-06-27T16:07:25.021Z,7.47
2018-06-27T16:09:53.450Z,8.30
2018-06-27T16:12:21.893Z,8.28
2018-06-27T16:14:50.206Z,8.15
2018-06-27T16:17:18.900Z,7.92
2018-06-27T16:19:46.976Z,8.63
2018-06-27T16:22:15.337Z,8.93
2018-06-27T16:24:43.796Z,9.38
2018-06-27T16:27:12.155Z,10.18
2018-06-27T16:29:40.612Z,9.28
2018-06-27T16:32:09.031Z,7.85
2018-06-27T16:34:37.451Z,7.80
2018-06-27T16:37:07.392Z,8.18
2018-06-27T16:39:35.718Z,11.60
2018-06-27T16:42:05.672Z,14.03
2018-06-27T16:44:34.430Z,7.22
2018-06-27T16:47:02.771Z,7.60
2018-06-27T16:49:31.095Z,6.15
2018-06-27T16:52:00.357Z,6.37
2018-06-27T16:54:38.349Z,6.45
2018-06-27T16:57:06.819Z,6.12
2018-06-27T16:59:35.162Z,5.95
2018-06-27T17:02:03.779Z,7.03
2018-06-27T17:04:34.448Z,7.53
2018-06-27T17:07:22.798Z,5.58
2018-06-27T17:09:54.469Z,6.40
2018-06-27T17:12:22.934Z,6.15
2018-06-27T17:14:57.295Z,6.20
2018-06-27T17:17:25.840Z,6.22
2018-06-27T17:19:54.649Z,5.60
2018-06-27T17:22:23.326Z,6.12
2018-06-27T17:24:57.999Z,6.80
2018-06-27T17:31:08.991Z,6.50
2018-06-27T17:33:46.362Z,5.53
2018-06-27T17:38:50.682Z,6.40
2018-06-27T17:41:19.191Z,6.40
2018-06-27T17:43:48.806Z,6.17
2018-06-27T17:46:19.446Z,55.38
2018-06-27T17:48:47.776Z,6.40
2018-06-27T17:51:16.248Z,6.00
2018-06-27T17:53:44.730Z,5.90
2018-06-27T17:56:13.072Z,5.67
2018-06-27T17:58:41.746Z,4.85
2018-06-27T18:01:15.686Z,5.20
2018-06-27T18:03:44.793Z,5.58
2018-06-27T18:06:12.776Z,6.50
2018-06-27T18:08:41.605Z,4.62
2018-06-27T18:11:12.011Z,4.78
2018-06-27T18:13:40.461Z,5.95
2018-06-27T18:16:09.034Z,5.80
2018-06-27T18:18:37.685Z,5.22
2018-06-27T18:21:10.245Z,4.95
2018-06-27T18:23:38.727Z,5.05
2018-06-27T18:26:10.266Z,5.50
2018-06-27T18:28:38.698Z,4.33
2018-06-27T18:31:09.993Z,4.40
2018-06-27T18:33:40.991Z,5.40
2018-06-27T18:39:00.993Z,4.80
2018-06-27T19:10:49.318Z,5.87
2018-06-27T19:18:54.455Z,5.70
2018-06-27T19:21:20.347Z,5.22
2018-06-27T19:23:56.696Z,5.80
2018-06-27T19:26:27.083Z,6.15
2018-06-27T19:28:57.373Z,6.73
2018-06-27T19:31:25.836Z,6.97
2018-06-27T19:33:54.083Z,7.20
2018-06-27T19:36:22.385Z,6.03
2018-06-27T19:38:51.767Z,6.80
2018-06-27T19:41:23.106Z,6.28
2018-06-27T19:43:51.505Z,6.30
2018-06-27T19:46:20.521Z,6.22
2018-06-27T19:48:48.736Z,6.33
2018-06-27T19:51:17.720Z,6.87
2018-06-27T19:53:46.041Z,6.47
2018-06-27T19:56:14.749Z,8.63
2018-06-27T19:58:43.129Z,6.47
2018-06-27T20:01:13.157Z,7.20
2018-06-27T20:03:45.313Z,7.03
2018-06-27T20:06:12.686Z,6.87
2018-06-27T20:08:41.280Z,7.90
2018-06-27T20:13:32.255Z,7.70
2018-06-27T20:16:00.722Z,8.20
2018-06-27T20:18:29.076Z,7.55
2018-06-27T20:20:59.633Z,8.18
2018-06-27T20:23:31.683Z,7.25
2018-06-27T20:26:07.747Z,8.75
2018-06-27T20:28:34.630Z,8.10
2018-06-27T20:31:02.987Z,8.13
2018-06-27T20:33:31.517Z,6.70
2018-06-27T20:36:00.004Z,9.03
2018-06-27T20:38:28.423Z,7.97
2018-06-27T20:40:56.610Z,8.48
2018-06-27T20:43:25.196Z,8.00
2018-06-27T20:45:53.608Z,9.10
2018-06-27T20:48:22.513Z,9.28
2018-06-27T20:50:53.572Z,8.40
2018-06-27T20:53:22.211Z,8.23
2018-06-27T20:55:52.862Z,8.30
2018-06-27T20:58:23.832Z,9.78
2018-06-27T21:00:52.872Z,8.40
2018-06-27T21:03:21.262Z,9.03
2018-06-27T21:05:54.429Z,9.25
2018-06-27T21:08:23.839Z,8.18
2018-06-27T21:10:58.370Z,8.48
2018-06-27T21:13:34.365Z,8.00
2018-06-27T21:20:15.815Z,9.95
2018-06-27T21:26:50.163Z,9.85
2018-06-27T21:29:39.433Z,9.25
2018-06-27T21:32:41.513Z,11.05
2018-06-27T21:35:04.819Z,9.85
2018-06-27T21:38:04.396Z,9.40
2018-06-27T21:40:58.607Z,10.60
2018-06-27T21:43:46.188Z,9.60
2018-06-27T21:46:29.810Z,12.30
2018-06-27T23:12:27.168Z,10.28
2018-06-27T23:19:06.962Z,10.15
2018-06-27T23:31:54.313Z,11.10
2018-06-27T23:34:44.533Z,11.03
2018-06-27T23:37:13.288Z,11.20
2018-06-27T23:39:44.567Z,11.30
2018-06-27T23:42:16.595Z,11.70
2018-06-27T23:44:45.062Z,11.18
2018-06-27T23:47:27.149Z,10.88
2018-06-27T23:49:58.559Z,11.03
2018-06-27T23:53:19.775Z,11.00
2018-06-27T23:55:46.338Z,14.30
2018-06-27T23:58:18.052Z,12.03
